Terminal Aerodrome Forecast
Issued by NWS

Home | Current Version | Previous Version | Text Only | Print | Product List | Glossary On
Versions: 1 2 3 4 5 6 7 8 9 10 11 12 13 14 15 16 17 18 19 20
000
FTUS43 KDTX 271555 AAA
TAFDET
TAF AMD
KDET 271555Z 2716/2812 21016G24KT P6SM SCT040 SCT090
     FM271700 24016G25KT P6SM BKN040
      TEMPO 2717/2721 2SM TSRA OVC035CB
     FM280000 29008KT P6SM SCT040
     FM280800 VRB04KT 6SM BR SCT030=

USA.gov is the U.S. government's official web portal to all federal, state and local government web resources and services.